.
WxDataArchive / Data Records for 2011-05-26
2011-05-25 May 2011 2011-05-27

Data Records for Thursday, 26 May 2011

Time	Temp	Chill	HIndex	Humid	Dewpt	 Wind 	HiWind	WindDir	Rain 	Barom 
-----	----	-----	------	-----	-----	------	------	-------	-----	----- 
00:00	61.5	61.5	61.5	93	59.5	3	9	90	0.00	29.557 
00:05	61.3	61.3	61.3	93	59.3	3	6	112	0.00	29.557 
00:10	61.2	61.2	61.2	93	59.2	3	6	90	0.00	29.557 
00:15	61.2	61.2	61.2	93	59.2	3	7	112	0.00	29.545 
00:20	61.2	61.2	61.2	93	59.2	2	5	90	0.00	29.545 
00:25	61.2	61.2	61.2	93	59.2	3	6	112	0.00	29.545 
00:30	61.2	61.2	61.2	92	58.9	3	5	90	0.03	29.519 
00:35	61.2	61.2	61.2	92	58.9	2	6	68	0.00	29.519 
00:40	61.2	61.2	61.2	93	59.2	3	6	90	0.00	29.519 
00:45	61.3	61.3	61.3	93	59.3	2	7	270	0.09	29.598 
00:50	61.2	61.2	61.2	93	59.2	1	4	270	0.04	29.598 
00:55	61.2	61.2	61.2	94	59.5	1	3	270	0.01	29.598 
01:00	61.2	61.2	61.2	94	59.5	1	4	270	0.00	29.582 
01:05	61.2	61.2	61.2	94	59.5	2	4	90	0.02	29.582 
01:10	61.2	61.2	61.2	94	59.5	1	4	338	0.02	29.582 
01:15	61.3	61.3	61.3	95	59.9	1	3	22	0.02	29.592 
01:20	61.3	61.3	61.3	95	59.9	2	6	90	0.02	29.592 
01:25	61.3	61.3	61.3	95	59.9	1	5	90	0.01	29.592 
01:30	61.3	61.3	61.3	95	59.9	2	6	68	0.01	29.565 
01:35	61.3	61.3	61.3	95	59.9	1	5	68	0.00	29.565 
01:40	61.2	61.2	61.2	95	59.8	2	5	68	0.00	29.565 
01:45	61.2	61.2	61.2	95	59.8	2	6	90	0.01	29.554 
01:50	61.0	61.0	61.0	95	59.6	2	4	90	0.00	29.554 
01:55	60.9	60.9	60.9	95	59.5	2	6	90	0.00	29.554 
02:00	60.7	60.7	60.7	95	59.3	2	6	90	0.00	29.539 
02:05	60.7	60.7	60.7	95	59.3	1	4	90	0.00	29.539 
02:10	60.5	60.5	60.5	95	59.1	2	4	112	0.00	29.539 
02:15	60.4	60.4	60.4	95	59.0	3	9	90	0.00	29.540 
02:20	60.4	60.4	60.4	95	59.0	1	3	135	0.00	29.540 
02:25	60.2	60.2	60.2	95	58.8	1	4	112	0.00	29.540 
02:30	60.2	60.2	60.2	95	58.8	1	4	45	0.00	29.535 
02:35	60.2	60.2	60.2	95	58.8	1	3	90	0.00	29.535 
02:40	60.2	60.2	60.2	95	58.8	1	5	45	0.00	29.535 
02:45	60.2	60.2	60.2	95	58.8	1	3	68	0.00	29.530 
02:50	60.2	60.2	60.2	95	58.8	1	3	68	0.00	29.530 
02:55	60.2	60.2	60.2	95	58.8	0	3	68	0.00	29.530 
03:00	60.1	60.1	60.1	95	58.7	1	3	68	0.00	29.537 
03:05	60.1	60.1	60.1	95	58.7	1	4	90	0.00	29.537 
03:10	60.1	60.1	60.1	95	58.7	0	3	90	0.00	29.537 
03:15	59.9	59.9	59.9	95	58.5	0	2	90	0.00	29.535 
03:20	59.9	59.9	59.9	95	58.5	0	3	90	0.00	29.535 
03:25	59.9	59.9	59.9	95	58.5	0	1	90	0.00	29.535 
03:30	59.9	59.9	59.9	95	58.5	0	3	90	0.00	29.542 
03:35	59.9	59.9	59.9	95	58.5	0	3	90	0.00	29.542 
03:40	59.9	59.9	59.9	95	58.5	1	2	90	0.00	29.542 
03:45	59.9	59.9	59.9	95	58.5	0	1	90	0.00	29.544 
03:50	59.8	59.8	59.8	95	58.4	0	1	90	0.00	29.544 
03:55	59.8	59.8	59.8	95	58.4	0	2	90	0.00	29.544 
04:00	59.8	59.8	59.8	95	58.4	0	0	---	0.00	29.556 
04:05	59.8	59.8	59.8	95	58.4	0	1	90	0.00	29.556 
04:10	59.8	59.8	59.8	95	58.4	0	2	90	0.00	29.556 
04:15	59.8	59.8	59.8	96	58.7	0	2	90	0.00	29.559 
04:20	59.8	59.8	59.8	96	58.7	0	1	90	0.00	29.559 
04:25	59.8	59.8	59.8	96	58.7	1	4	90	0.00	29.559 
04:30	59.9	59.9	59.9	96	58.8	0	4	90	0.00	29.556 
04:35	59.9	59.9	59.9	96	58.8	0	1	90	0.00	29.556 
04:40	59.9	59.9	59.9	96	58.8	0	2	90	0.00	29.556 
04:45	59.9	59.9	59.9	96	58.8	0	2	90	0.00	29.559 
04:50	60.1	60.1	60.1	96	59.0	0	2	90	0.00	29.559 
04:55	60.1	60.1	60.1	96	59.0	0	2	90	0.00	29.559 
05:00	60.2	60.2	60.2	96	59.1	0	4	90	0.00	29.561 
05:05	60.2	60.2	60.2	96	59.1	1	3	90	0.00	29.561 
05:10	60.2	60.2	60.2	95	58.8	0	3	90	0.00	29.561 
05:15	60.4	60.4	60.4	95	59.0	1	3	90	0.00	29.561 
05:20	60.4	60.4	60.4	95	59.0	0	2	90	0.00	29.561 
05:25	60.4	60.4	60.4	95	59.0	1	4	90	0.00	29.561 
05:30	60.5	60.5	60.5	95	59.1	0	2	158	0.00	29.573 
05:35	60.5	60.5	60.5	95	59.1	0	2	158	0.00	29.573 
05:40	60.5	60.5	60.5	95	59.1	1	3	270	0.00	29.573 
05:45	60.7	60.7	60.7	95	59.3	1	3	225	0.00	29.578 
05:50	60.7	60.7	60.7	95	59.3	1	4	225	0.00	29.578 
05:55	60.7	60.7	60.7	95	59.3	0	3	225	0.00	29.578 
06:00	60.9	60.9	60.9	95	59.5	1	3	225	0.00	29.588 
06:05	60.9	60.9	60.9	95	59.5	1	4	225	0.00	29.588 
06:10	61.0	61.0	61.0	95	59.6	1	4	225	0.00	29.588 
06:15	61.0	61.0	61.0	95	59.6	1	3	248	0.00	29.593 
06:20	61.0	61.0	61.0	95	59.6	1	3	248	0.00	29.593 
06:25	61.2	61.2	61.2	95	59.8	0	2	248	0.00	29.593 
06:30	61.2	61.2	61.2	95	59.8	0	3	270	0.00	29.595 
06:35	61.3	61.3	61.3	95	59.9	1	3	248	0.00	29.595 
06:40	61.3	61.3	61.3	94	59.6	1	4	292	0.00	29.595 
06:45	61.3	61.3	61.3	94	59.6	1	4	315	0.00	29.601 
06:50	61.5	61.5	61.5	94	59.8	1	5	248	0.00	29.601 
06:55	61.6	61.6	61.6	94	59.9	1	3	248	0.00	29.601 
07:00	61.6	61.6	61.6	94	59.9	1	3	248	0.00	29.605 
07:05	61.6	61.6	61.6	94	59.9	1	4	270	0.00	29.605 
07:10	61.8	61.8	61.8	94	60.1	1	3	270	0.00	29.605 
07:15	61.8	61.8	61.8	93	59.8	1	3	270	0.00	29.607 
07:20	61.8	61.8	61.8	93	59.8	1	6	248	0.00	29.607 
07:25	62.0	62.0	62.0	93	59.9	0	2	248	0.00	29.607 
07:30	62.1	62.1	62.1	93	60.0	1	3	248	0.00	29.621 
07:35	62.3	62.3	62.3	93	60.2	1	3	248	0.00	29.621 
07:40	62.4	62.4	62.4	93	60.3	0	2	315	0.00	29.621 
07:45	62.6	62.6	62.6	93	60.5	0	2	315	0.00	29.624 
07:50	62.7	62.7	62.7	93	60.6	0	3	315	0.00	29.624 
07:55	62.7	62.7	62.7	92	60.3	1	3	225	0.00	29.624 
08:00	62.9	62.9	62.9	92	60.5	1	3	248	0.00	29.622 
08:05	63.2	63.2	63.2	92	60.8	1	4	248	0.00	29.622 
08:10	63.4	63.4	63.4	92	61.0	1	4	338	0.00	29.622 
08:15	63.4	63.4	63.4	91	60.7	1	4	248	0.00	29.630 
08:20	63.5	63.5	63.5	91	60.8	0	2	292	0.00	29.630 
08:25	63.4	63.4	63.4	91	60.7	0	2	292	0.00	29.630 
08:30	63.4	63.4	63.4	90	60.4	0	2	292	0.00	29.634 
08:35	63.4	63.4	63.4	90	60.4	1	6	292	0.00	29.634 
08:40	63.5	63.5	63.5	90	60.5	0	2	270	0.00	29.634 
08:45	63.5	63.5	63.5	90	60.5	0	3	270	0.00	29.634 
08:50	63.7	63.7	63.7	90	60.7	0	2	270	0.00	29.634 
08:55	63.7	63.7	63.7	90	60.7	1	4	270	0.00	29.634 
09:00	63.9	63.9	63.9	89	60.6	1	4	270	0.00	29.634 
09:05	64.0	64.0	64.0	89	60.7	0	2	270	0.00	29.634 
09:10	64.2	64.2	64.2	88	60.6	0	2	270	0.00	29.634 
09:15	64.3	64.3	64.3	88	60.7	0	2	270	0.00	29.637 
09:20	64.5	64.5	64.5	88	60.9	1	5	270	0.00	29.637 
09:25	64.5	64.5	64.5	88	60.9	1	4	270	0.00	29.637 
09:30	64.7	64.7	64.7	88	61.1	0	2	315	0.00	29.637 
09:35	64.7	64.7	64.7	87	60.7	1	3	315	0.00	29.637 
09:40	64.8	64.8	64.8	87	60.8	1	3	315	0.00	29.637 
09:45	65.0	65.0	65.0	87	61.0	1	4	248	0.00	29.637 
09:50	65.3	65.3	65.3	86	61.0	1	5	248	0.00	29.637 
09:55	65.8	65.8	65.8	86	61.5	1	2	248	0.00	29.637 
10:00	66.0	66.0	66.0	85	61.4	0	2	22	0.00	29.638 
10:05	66.1	66.1	66.1	84	61.1	0	3	315	0.00	29.638 
10:10	66.6	66.6	66.6	84	61.6	1	3	0	0.00	29.638 
10:15	67.1	67.1	67.1	84	62.1	1	3	270	0.00	29.639 
10:20	66.9	66.9	66.9	82	61.2	1	3	270	0.00	29.639 
10:25	66.8	66.8	66.8	82	61.1	1	4	248	0.00	29.639 
10:30	66.9	66.9	66.9	82	61.2	0	2	248	0.00	29.636 
10:35	67.1	67.1	67.1	82	61.4	0	2	248	0.00	29.636 
10:40	67.6	67.6	67.6	81	61.6	1	3	248	0.00	29.636 
10:45	68.3	68.3	68.3	80	61.9	1	3	248	0.00	29.634 
10:50	68.4	68.4	68.4	77	60.9	1	4	68	0.00	29.634 
10:55	68.8	68.8	68.8	77	61.3	0	3	225	0.00	29.634 
11:00	68.9	68.9	68.9	76	61.0	1	4	292	0.00	29.634 
11:05	69.3	69.3	69.3	76	61.4	1	3	292	0.00	29.634 
11:10	68.9	68.9	68.9	75	60.6	1	4	270	0.00	29.634 
11:15	68.4	68.4	68.4	75	60.2	0	2	270	0.00	29.647 
11:20	68.1	68.1	68.1	77	60.6	1	3	270	0.00	29.647 
11:25	67.9	67.9	67.9	77	60.4	0	2	270	0.00	29.647 
11:30	67.8	67.8	67.8	79	61.0	0	1	292	0.00	29.646 
11:35	67.6	67.6	67.6	79	60.8	0	1	292	0.00	29.646 
11:40	67.6	67.6	67.6	79	60.8	0	1	292	0.00	29.646 
11:45	67.6	67.6	67.6	80	61.2	0	1	292	0.00	29.648 
11:50	67.8	67.8	67.8	80	61.4	0	3	90	0.00	29.648 
11:55	67.8	67.8	67.8	81	61.7	0	1	112	0.00	29.648 
12:00	68.1	68.1	68.1	80	61.7	0	3	112	0.00	29.648 
12:05	68.3	68.3	68.3	80	61.9	0	2	112	0.00	29.648 
12:10	68.4	68.4	68.4	80	62.0	0	2	112	0.00	29.648 
12:15	68.4	68.4	68.4	80	62.0	0	1	112	0.00	29.645 
12:20	68.6	68.6	68.6	79	61.8	0	0	---	0.00	29.645 
12:25	68.4	68.4	68.4	81	62.3	1	3	90	0.02	29.645 
12:30	67.1	67.1	67.1	84	62.1	1	3	90	0.08	29.648 
12:35	66.3	66.3	66.3	87	62.3	0	1	90	0.07	29.648 
12:40	65.8	65.8	65.8	88	62.1	0	1	90	0.05	29.648 
12:45	65.6	65.6	65.6	89	62.3	0	0	---	0.01	29.652 
12:50	65.3	65.3	65.3	90	62.3	0	0	---	0.01	29.652 
12:55	65.2	65.2	65.2	91	62.5	0	0	---	0.02	29.652 
13:00	65.0	65.0	65.0	91	62.3	0	0	---	0.00	29.651 
13:05	64.8	64.8	64.8	92	62.4	0	0	---	0.02	29.651 
13:10	64.8	64.8	64.8	92	62.4	0	0	---	0.02	29.651 
13:15	64.8	64.8	64.8	93	62.7	0	0	---	0.03	29.642 
13:20	64.7	64.7	64.7	92	62.3	0	1	90	0.01	29.642 
13:25	64.3	64.3	64.3	93	62.2	0	0	---	0.00	29.642 
13:30	64.5	64.5	64.5	93	62.4	0	0	---	0.01	29.640 
13:35	64.5	64.5	64.5	93	62.4	0	0	---	0.00	29.640 
13:40	64.5	64.5	64.5	94	62.7	0	0	---	0.02	29.640 
13:45	64.5	64.5	64.5	94	62.7	0	1	90	0.04	29.651 
13:50	64.2	64.2	64.2	93	62.1	0	3	90	0.04	29.651 
13:55	63.9	63.9	63.9	94	62.1	0	0	---	0.02	29.651 
14:00	63.7	63.7	63.7	94	61.9	0	1	90	0.02	29.656 
14:05	63.5	63.5	63.5	94	61.7	0	0	---	0.03	29.656 
14:10	63.4	63.4	63.4	94	61.6	0	0	---	0.03	29.656 
14:15	63.4	63.4	63.4	94	61.6	0	0	---	0.03	29.654 
14:20	63.4	63.4	63.4	94	61.6	0	0	---	0.03	29.654 
14:25	63.4	63.4	63.4	95	61.9	0	1	90	0.04	29.654 
14:30	63.1	63.1	63.1	94	61.3	1	3	90	0.05	29.653 
14:35	62.9	62.9	62.9	94	61.1	1	2	315	0.01	29.653 
14:40	63.1	63.1	63.1	95	61.6	0	2	315	0.00	29.653 
14:45	63.2	63.2	63.2	95	61.7	0	1	315	0.00	29.647 
14:50	63.4	63.4	63.4	95	61.9	0	0	---	0.00	29.647 
14:55	63.7	63.7	63.7	95	62.2	0	0	---	0.00	29.647 
15:00	64.0	64.0	64.0	95	62.5	0	1	22	0.00	29.650 
15:05	64.3	64.3	64.3	95	62.8	0	0	---	0.00	29.650 
15:10	64.3	64.3	64.3	95	62.8	0	1	22	0.00	29.650 
15:15	64.3	64.3	64.3	95	62.8	0	0	---	0.00	29.653 
15:20	64.5	64.5	64.5	95	63.0	0	1	22	0.00	29.653 
15:25	64.5	64.5	64.5	95	63.0	0	0	---	0.00	29.653 
15:30	64.3	64.3	64.3	95	62.8	0	1	22	0.00	29.657 
15:35	64.0	64.0	64.0	95	62.5	1	2	22	0.02	29.657 
15:40	63.7	63.7	63.7	95	62.2	1	2	22	0.01	29.657 
15:45	63.5	63.5	63.5	95	62.0	0	1	22	0.01	29.668 
15:50	63.5	63.5	63.5	95	62.0	0	2	22	0.11	29.668 
15:55	63.4	63.4	63.4	95	61.9	0	0	---	0.01	29.668 
16:00	63.1	63.1	63.1	95	61.6	0	2	22	0.05	29.664 
16:05	63.1	63.1	63.1	95	61.6	0	0	---	0.03	29.664 
16:10	63.1	63.1	63.1	95	61.6	0	0	---	0.01	29.664 
16:15	63.2	63.2	63.2	96	62.0	0	0	---	0.00	29.665 
16:20	63.4	63.4	63.4	95	61.9	0	0	---	0.01	29.665 
16:25	63.4	63.4	63.4	95	61.9	0	0	---	0.01	29.665 
16:30	63.5	63.5	63.5	95	62.0	0	1	45	0.01	29.670 
16:35	63.5	63.5	63.5	96	62.3	0	1	45	0.00	29.670 
16:40	63.7	63.7	63.7	96	62.5	0	0	---	0.01	29.670 
16:45	63.7	63.7	63.7	96	62.5	0	0	---	0.00	29.666 
16:50	63.5	63.5	63.5	95	62.0	0	0	---	0.01	29.666 
16:55	63.7	63.7	63.7	95	62.2	0	0	---	0.00	29.666 
17:00	63.9	63.9	63.9	96	62.7	0	0	---	0.00	29.667 
17:05	64.2	64.2	64.2	96	63.0	0	0	---	0.00	29.667 
17:10	64.3	64.3	64.3	96	63.1	0	1	338	0.00	29.667 
17:15	64.2	64.2	64.2	95	62.7	0	0	---	0.00	29.666 
17:20	64.2	64.2	64.2	95	62.7	0	0	---	0.00	29.666 
17:25	64.3	64.3	64.3	96	63.1	0	0	---	0.00	29.666 
17:30	64.2	64.2	64.2	95	62.7	0	0	---	0.00	29.670 
17:35	64.2	64.2	64.2	95	62.7	0	0	---	0.00	29.670 
17:40	64.2	64.2	64.2	95	62.7	0	0	---	0.00	29.670 
17:45	64.3	64.3	64.3	95	62.8	0	0	---	0.00	29.672 
17:50	64.5	64.5	64.5	95	63.0	0	0	---	0.00	29.672 
17:55	64.3	64.3	64.3	95	62.8	0	0	---	0.00	29.672 
18:00	64.0	64.0	64.0	95	62.5	0	1	225	0.00	29.683 
18:05	62.6	62.6	62.6	94	60.8	1	5	292	0.00	29.683 
18:10	61.0	61.0	61.0	93	59.0	2	4	45	0.00	29.683 
18:15	60.2	60.2	60.2	94	58.5	1	4	22	0.00	29.697 
18:20	59.5	59.5	59.5	93	57.5	1	5	158	0.00	29.697 
18:25	58.9	58.9	58.9	93	56.9	1	4	45	0.00	29.697 
18:30	58.4	58.4	58.4	94	56.7	1	8	45	0.00	29.709 
18:35	58.1	58.1	58.1	94	56.4	0	5	45	0.00	29.709 
18:40	58.1	58.1	58.1	94	56.4	0	2	158	0.00	29.709 
18:45	58.0	58.0	58.0	94	56.3	0	2	112	0.00	29.719 
18:50	57.5	57.5	57.5	94	55.8	1	4	270	0.00	29.719 
18:55	57.2	57.2	57.2	94	55.5	0	3	270	0.00	29.719 
19:00	56.9	56.9	56.9	94	55.2	1	9	112	0.00	29.722 
19:05	56.6	56.6	56.6	94	54.9	1	4	45	0.00	29.722 
19:10	56.3	56.3	56.3	94	54.6	0	2	270	0.00	29.722 
19:15	56.3	56.3	56.3	94	54.6	0	4	135	0.00	29.732 
19:20	55.9	55.9	55.9	94	54.2	0	2	135	0.00	29.732 
19:25	55.3	55.3	55.3	94	53.6	0	5	45	0.00	29.732 
19:30	54.7	54.7	54.7	94	53.0	1	4	292	0.00	29.737 
19:35	54.2	54.2	54.2	94	52.5	1	4	292	0.00	29.737 
19:40	53.9	53.9	53.9	94	52.2	0	2	292	0.00	29.737 
19:45	53.6	53.6	53.6	94	51.9	1	4	292	0.00	29.751 
19:50	53.3	53.3	53.3	94	51.6	1	3	292	0.00	29.751 
19:55	53.1	53.1	53.1	94	51.4	1	3	315	0.00	29.751 
20:00	52.8	52.8	52.8	94	51.1	1	4	338	0.00	29.756 
20:05	52.8	52.8	52.8	94	51.1	0	3	338	0.00	29.756 
20:10	52.6	52.6	52.6	94	50.9	0	3	270	0.00	29.756 
20:15	52.5	52.5	52.5	94	50.8	0	6	158	0.00	29.769 
20:20	52.3	52.3	52.3	94	50.6	1	4	135	0.00	29.769 
20:25	52.2	52.2	52.2	94	50.5	1	8	112	0.00	29.769 
20:30	52.2	52.2	52.2	94	50.5	0	3	158	0.00	29.771 
20:35	52.2	52.2	52.2	94	50.5	0	3	135	0.00	29.771 
20:40	52.0	52.0	52.0	94	50.3	1	4	90	0.00	29.771 
20:45	51.9	51.9	51.9	94	50.2	0	2	90	0.00	29.773 
20:50	51.9	51.9	51.9	94	50.2	0	2	90	0.00	29.773 
20:55	51.6	51.6	51.6	94	49.9	1	4	112	0.00	29.773 
21:00	51.4	51.4	51.4	94	49.7	0	2	45	0.00	29.787 
21:05	51.4	51.4	51.4	94	49.7	0	4	90	0.00	29.787 
21:10	51.3	51.3	51.3	94	49.6	0	3	90	0.00	29.787 
21:15	51.3	51.3	51.3	94	49.6	0	2	68	0.00	29.793 
21:20	51.3	51.3	51.3	94	49.6	0	3	68	0.00	29.793 
21:25	51.3	51.3	51.3	94	49.6	0	2	68	0.00	29.793 
21:30	51.3	51.3	51.3	94	49.6	0	3	180	0.00	29.799 
21:35	51.3	51.3	51.3	94	49.6	0	2	180	0.00	29.799 
21:40	51.3	51.3	51.3	94	49.6	1	5	135	0.00	29.799 
21:45	51.0	51.0	51.0	94	49.3	0	4	135	0.00	29.807 
21:50	50.7	50.7	50.7	93	48.7	1	9	0	0.00	29.807 
21:55	50.4	50.4	50.4	94	48.7	0	5	270	0.00	29.807 
22:00	50.2	50.2	50.2	94	48.5	0	2	270	0.00	29.818 
22:05	50.4	50.4	50.4	94	48.7	0	3	270	0.00	29.818 
22:10	50.2	50.2	50.2	94	48.5	0	2	315	0.00	29.818 
22:15	50.1	50.1	50.1	94	48.4	0	3	338	0.00	29.832 
22:20	50.1	50.1	50.1	94	48.4	0	2	338	0.01	29.832 
22:25	49.9	49.9	49.9	94	48.2	0	2	0	0.00	29.832 
22:30	49.8	49.8	49.8	93	47.9	1	5	68	0.00	29.843 
22:35	49.9	49.9	49.9	94	48.2	0	2	68	0.00	29.843 
22:40	50.1	50.1	50.1	94	48.4	1	5	135	0.00	29.843 
22:45	50.1	50.1	50.1	94	48.4	0	6	112	0.00	29.847 
22:50	49.9	49.9	49.9	94	48.2	0	1	112	0.00	29.847 
22:55	49.8	49.8	49.8	93	47.9	0	3	112	0.00	29.847 
23:00	49.8	49.8	49.8	94	48.1	0	1	112	0.00	29.848 
23:05	49.6	49.6	49.6	94	47.9	0	2	112	0.00	29.848 
23:10	49.6	49.6	49.6	94	47.9	1	4	90	0.00	29.848 
23:15	49.5	49.5	49.5	94	47.8	0	3	90	0.00	29.849 
23:20	49.5	49.5	49.5	94	47.8	0	2	90	0.00	29.849 
23:25	49.5	49.5	49.5	94	47.8	0	1	90	0.00	29.849 
23:30	49.5	49.5	49.5	94	47.8	0	1	90	0.00	29.849 
23:35	49.4	49.4	49.4	94	47.7	1	5	158	0.00	29.849 
23:40	49.4	49.4	49.4	94	47.7	0	3	248	0.00	29.849 
23:45	49.4	49.4	49.4	94	47.7	0	2	248	0.00	29.852 
23:50	49.2	49.2	49.2	94	47.5	1	3	90	0.00	29.852 
23:55	49.2	49.2	49.2	94	47.5	0	5	135	0.00	29.852 

CoCoRaHS
IN-AL-39
A2 Web Hosting
Creative Commons License
GoDaddy
search engine by freefind advanced

loaded 2018-11-20 14:23:34 • last modified 2010-11-18 10:43:29
Privacy PolicyDisclaimer
• wx.awcolley.com is powered by PmWiki v.2002016 •
• all content (unless otherwise noted) © 2018 A W Colley